Killeen, TX (76547)

6:06 AM CST on November 23, 2014 (GMT -0600)
Fort Hood Patton Park | Change Station
CLOSE
Current Station
Personal Weather Station
Location: Fort Hood, TX
Elevation: 879 ft
Nearby Weather Stations

Elev 879 ft 31.12 °N, 97.74 °W | Updated 14 minutes ago

Clear
Clear
52.5 °F
Feels Like 52.5 °F
N
0.0
Wind Variable Wind from SE

Today
High -- | Low -- °F
--% Chance of Precip.
Yesterday
High -- | Low -- °F
Precip. -- in
7:04 AM 5:29 PM
New Moon, 1% visible
Pressure 29.71 in
Visibility 10.0 miles
Clouds Clear
Dew Point 52 °F
Humidity 98%
Rainfall 0.00 in
Snow Depth Not available.
UV 0 out of 12
Pollen .60 out of 12
Air Quality Not available.
Flu Activity Not available.
METAR KHLR 231156Z AUTO 19003KT 10SM CLR 13/11 A2963 RMK AO2 SLP061 70110 T01280111 10144 20128 58007 $

More Conditions Fewer Conditions

Pressure 29.71 in
Visibility 10.0 miles
Clouds Clear
Dew Point 52 °F
Humidity 98%
Rainfall 0.00 in
Snow Depth Not available.
UV 0 out of 12
Pollen .60 out of 12
Air Quality Not available.
Flu Activity Not available.
METAR KHLR 231156Z AUTO 19003KT 10SM CLR 13/11 A2963 RMK AO2 SLP061 70110 T01280111 10144 20128 58007 $

More Conditions Fewer Conditions

10-Day Weather Forecast

Almanac

Astronomy

Nov. 23, 2014 Rise Set
Actual Time
Civil Twilight
Nautical Twilight
Astronomical Twilight
Moon
Length of Visible Light
Length of Day
Tomorrow will be .
, % of the Moon is Illuminated

Today's Extremes

State Highs State Lows

Community

WunderPhotos

Upload Photos

1,773,041 photos uploaded!

WunderBlogs® & News

Nearby

Air Quality

  Air Quality AQ Index Pollutant
Not available.

Snow Depth

Station Depth Elevation

Earthquake Activity

City Distance Mag. Time & Date
Minimum magnitude displayed is 2.5.

Coastal Water Temperatures

Place Temperature

Nearby Weather Stations